createdAt,value
2022-12-08T00:01:00.039Z,62.37
2022-12-08T00:03:26.756Z,63.00
2022-12-08T00:05:53.161Z,62.60
2022-12-08T00:08:19.506Z,62.69
2022-12-08T00:10:49.903Z,62.52
2022-12-08T00:13:16.401Z,61.70
2022-12-08T00:15:42.676Z,61.72
2022-12-08T00:18:09.029Z,61.84
2022-12-08T00:20:35.275Z,62.15
2022-12-08T00:23:01.514Z,62.29
2022-12-08T00:25:27.782Z,62.42
2022-12-08T00:27:54.051Z,61.90
2022-12-08T00:30:20.310Z,61.69
2022-12-08T00:32:46.589Z,61.91
2022-12-08T00:35:12.826Z,61.55
2022-12-08T00:37:39.081Z,61.32
2022-12-08T00:40:05.594Z,61.64
2022-12-08T00:42:32.142Z,61.81
2022-12-08T00:44:58.399Z,61.62
2022-12-08T00:47:25.109Z,62.22
2022-12-08T00:49:51.521Z,61.56
2022-12-08T00:52:17.792Z,61.43
2022-12-08T00:54:44.064Z,62.01
2022-12-08T00:57:10.332Z,62.03
2022-12-08T00:59:36.695Z,61.42
2022-12-08T01:02:02.981Z,61.85
2022-12-08T01:04:29.316Z,61.33
2022-12-08T01:06:55.565Z,61.34
2022-12-08T01:09:21.807Z,61.55
2022-12-08T01:11:48.050Z,61.45
2022-12-08T01:14:14.312Z,61.20
2022-12-08T01:16:40.632Z,61.54
2022-12-08T01:19:06.909Z,61.52
2022-12-08T01:21:33.172Z,61.31
2022-12-08T01:23:59.444Z,61.22
2022-12-08T01:26:25.685Z,61.24
2022-12-08T01:28:51.968Z,61.02
2022-12-08T01:31:18.263Z,61.18
2022-12-08T01:33:44.628Z,61.19
2022-12-08T01:36:10.887Z,60.98
2022-12-08T01:38:37.159Z,60.61
2022-12-08T01:41:03.449Z,60.64
2022-12-08T01:43:29.714Z,60.68
2022-12-08T01:45:55.978Z,60.21
2022-12-08T01:48:22.338Z,60.31
2022-12-08T01:50:48.613Z,59.98
2022-12-08T01:53:14.869Z,59.79
2022-12-08T01:55:41.255Z,59.67
2022-12-08T01:58:07.546Z,59.64
2022-12-08T02:00:33.785Z,59.68
2022-12-08T02:03:00.170Z,60.06
2022-12-08T02:05:26.490Z,59.46
2022-12-08T02:07:52.826Z,60.08
2022-12-08T02:10:19.181Z,59.98
2022-12-08T02:12:45.466Z,59.95
2022-12-08T02:15:11.731Z,59.90
2022-12-08T02:17:37.986Z,60.00
2022-12-08T02:20:04.423Z,59.79
2022-12-08T02:22:30.829Z,59.86
2022-12-08T02:24:57.101Z,59.81
2022-12-08T02:27:23.350Z,59.41
2022-12-08T02:29:49.602Z,59.28
2022-12-08T02:32:15.846Z,59.36
2022-12-08T02:34:42.150Z,59.04
2022-12-08T02:37:08.406Z,59.43
2022-12-08T02:39:34.653Z,59.51
2022-12-08T02:42:00.917Z,59.36
2022-12-08T02:44:27.180Z,59.17
2022-12-08T02:46:53.439Z,59.28
2022-12-08T02:49:19.722Z,59.34
2022-12-08T02:51:45.996Z,59.97
2022-12-08T02:54:12.257Z,59.45
2022-12-08T02:56:38.510Z,59.47
2022-12-08T02:59:04.805Z,59.95
2022-12-08T03:01:31.127Z,59.91
2022-12-08T03:03:57.488Z,60.02
2022-12-08T03:06:23.767Z,60.06
2022-12-08T03:08:50.048Z,59.46
2022-12-08T03:11:16.288Z,59.86
2022-12-08T03:13:42.545Z,59.29
2022-12-08T03:16:08.929Z,59.90
2022-12-08T03:18:35.292Z,59.61
2022-12-08T03:21:01.682Z,59.58
2022-12-08T03:23:27.962Z,59.54
2022-12-08T03:25:54.330Z,59.52
2022-12-08T03:28:20.686Z,59.93
2022-12-08T03:30:47.030Z,59.79
2022-12-08T03:33:13.303Z,60.41
2022-12-08T03:35:39.579Z,60.41
2022-12-08T03:38:05.834Z,60.33
2022-12-08T03:40:32.083Z,60.09
2022-12-08T03:42:58.361Z,60.46
2022-12-08T03:45:24.627Z,60.29
2022-12-08T03:47:50.902Z,60.63
2022-12-08T03:50:17.159Z,60.08
2022-12-08T03:52:43.419Z,60.50
2022-12-08T03:55:09.682Z,60.24
2022-12-08T03:57:35.955Z,59.90
2022-12-08T04:00:02.797Z,59.98
2022-12-08T04:02:29.304Z,60.37
2022-12-08T04:04:55.649Z,60.51
2022-12-08T04:07:21.940Z,60.34
2022-12-08T04:09:48.183Z,60.56
2022-12-08T04:12:14.455Z,60.36
2022-12-08T04:14:40.730Z,60.90
2022-12-08T04:17:07.010Z,60.29
2022-12-08T04:19:33.289Z,60.25
2022-12-08T04:21:59.549Z,60.19
2022-12-08T04:24:25.815Z,60.42
2022-12-08T04:26:52.101Z,60.07
2022-12-08T04:29:18.379Z,60.49
2022-12-08T04:31:44.746Z,60.28
2022-12-08T04:34:11.068Z,59.95
2022-12-08T04:36:37.326Z,60.06
2022-12-08T04:39:03.607Z,60.00
2022-12-08T04:41:29.865Z,60.15
2022-12-08T04:43:56.157Z,60.81
2022-12-08T04:46:22.473Z,60.82
2022-12-08T04:48:48.753Z,61.06
2022-12-08T04:51:15.030Z,60.71
2022-12-08T04:53:46.307Z,60.64
2022-12-08T04:56:13.091Z,60.36
2022-12-08T04:58:39.363Z,60.65
2022-12-08T05:01:05.657Z,60.84
2022-12-08T05:03:31.968Z,60.48
2022-12-08T05:05:58.233Z,60.46
2022-12-08T05:08:24.560Z,60.30
2022-12-08T05:10:50.860Z,60.49
2022-12-08T05:13:17.142Z,60.31
2022-12-08T05:15:43.397Z,60.33
2022-12-08T05:18:09.645Z,60.30
2022-12-08T05:20:35.924Z,60.70
2022-12-08T05:23:02.169Z,60.87
2022-12-08T05:25:28.460Z,61.41
2022-12-08T05:28:06.159Z,61.08
2022-12-08T05:30:37.862Z,61.19
2022-12-08T05:33:04.112Z,61.29
2022-12-08T05:35:30.358Z,61.29
2022-12-08T05:37:56.657Z,60.87
2022-12-08T05:40:22.907Z,61.21
2022-12-08T05:42:49.162Z,61.08
2022-12-08T05:45:15.452Z,61.41
2022-12-08T05:47:41.701Z,61.50
2022-12-08T05:50:07.996Z,61.06
2022-12-08T05:52:34.306Z,61.03
2022-12-08T05:55:00.571Z,60.72
2022-12-08T05:57:26.828Z,61.10
2022-12-08T05:59:53.072Z,60.95
2022-12-08T06:02:19.428Z,61.01
2022-12-08T06:04:45.774Z,61.12
2022-12-08T06:07:16.036Z,60.79
2022-12-08T06:09:42.586Z,60.72
2022-12-08T06:12:08.838Z,60.42
2022-12-08T06:14:35.103Z,60.40
2022-12-08T06:17:01.412Z,60.22
2022-12-08T06:19:27.756Z,60.33
2022-12-08T06:21:54.037Z,60.58
2022-12-08T06:24:20.282Z,60.30
2022-12-08T06:26:46.534Z,59.77
2022-12-08T06:29:12.821Z,60.18
2022-12-08T06:31:39.203Z,59.77
2022-12-08T06:34:05.559Z,59.49
2022-12-08T06:36:31.848Z,59.44
2022-12-08T06:38:58.113Z,58.92
2022-12-08T06:41:24.373Z,59.29
2022-12-08T06:43:50.634Z,58.92
2022-12-08T06:46:17.027Z,58.21
2022-12-08T06:48:43.381Z,58.09
2022-12-08T06:51:09.654Z,58.05
2022-12-08T06:53:35.956Z,56.97
2022-12-08T06:56:02.229Z,57.98
2022-12-08T06:58:28.496Z,57.54
2022-12-08T07:00:55.050Z,57.34
2022-12-08T07:03:21.369Z,57.68
2022-12-08T07:05:47.679Z,57.46
2022-12-08T07:08:14.068Z,58.11
2022-12-08T07:10:40.385Z,58.31
2022-12-08T07:13:06.652Z,58.69
2022-12-08T07:15:32.904Z,58.50
2022-12-08T07:18:00.405Z,58.42
2022-12-08T07:20:26.939Z,58.14
2022-12-08T07:22:53.209Z,58.21
2022-12-08T07:25:19.472Z,57.82
2022-12-08T07:27:45.826Z,57.74
2022-12-08T07:30:12.101Z,58.09
2022-12-08T07:32:38.362Z,58.12
2022-12-08T07:35:04.610Z,57.43
2022-12-08T07:37:30.872Z,57.42
2022-12-08T07:39:57.170Z,57.75
2022-12-08T07:42:23.430Z,57.85
2022-12-08T07:44:49.709Z,57.49
2022-12-08T07:47:15.973Z,56.92
2022-12-08T07:49:42.246Z,57.55
2022-12-08T07:52:08.509Z,57.20
2022-12-08T07:54:34.780Z,56.89
2022-12-08T07:57:01.044Z,56.95
2022-12-08T07:59:27.309Z,57.07
2022-12-08T08:02:13.470Z,56.99
2022-12-08T08:04:39.844Z,57.64
2022-12-08T08:07:06.155Z,57.43
2022-12-08T08:09:32.426Z,56.80
2022-12-08T08:12:29.098Z,57.34
2022-12-08T08:14:44.945Z,57.54
2022-12-08T08:17:11.439Z,57.08
2022-12-08T08:19:37.819Z,57.41
2022-12-08T08:22:04.076Z,57.07
2022-12-08T08:24:30.357Z,57.59
2022-12-08T08:26:56.601Z,57.56
2022-12-08T08:29:22.950Z,57.46
2022-12-08T08:31:49.259Z,57.09
2022-12-08T08:34:15.559Z,57.18
2022-12-08T08:36:41.897Z,57.13
2022-12-08T08:39:08.213Z,57.60
2022-12-08T08:41:34.466Z,57.10
2022-12-08T08:44:00.722Z,57.50
2022-12-08T08:46:27.188Z,57.39
2022-12-08T08:48:53.475Z,57.38
2022-12-08T08:51:19.828Z,57.12
2022-12-08T08:53:46.098Z,57.65
2022-12-08T08:56:12.432Z,57.59
2022-12-08T08:58:38.715Z,57.33
2022-12-08T09:01:04.988Z,57.04
2022-12-08T09:03:31.261Z,57.14
2022-12-08T09:05:57.614Z,57.29
2022-12-08T09:08:24.013Z,57.12
2022-12-08T09:10:50.376Z,57.23
2022-12-08T09:13:16.646Z,56.87
2022-12-08T09:15:42.966Z,57.18
2022-12-08T09:18:09.335Z,57.13
2022-12-08T09:20:35.601Z,56.49
2022-12-08T09:23:01.881Z,56.50
2022-12-08T09:25:28.137Z,56.72
2022-12-08T09:27:54.432Z,57.28
2022-12-08T09:30:20.718Z,57.37
2022-12-08T09:32:47.075Z,57.18
2022-12-08T09:35:13.337Z,57.48
2022-12-08T09:37:39.643Z,56.80
2022-12-08T09:40:06.073Z,57.13
2022-12-08T09:42:32.548Z,56.91
2022-12-08T09:44:58.830Z,57.73
2022-12-08T09:47:26.123Z,57.15
2022-12-08T09:49:54.649Z,56.20
2022-12-08T09:52:20.988Z,56.17
2022-12-08T09:54:47.374Z,55.89
2022-12-08T09:57:13.688Z,55.94
2022-12-08T09:59:40.037Z,55.62
2022-12-08T10:02:06.409Z,55.45
2022-12-08T10:04:32.850Z,55.66
2022-12-08T10:06:59.251Z,55.18
2022-12-08T10:09:25.505Z,54.88
2022-12-08T10:11:51.765Z,55.15
2022-12-08T10:14:18.024Z,54.51
2022-12-08T10:16:44.367Z,54.43
2022-12-08T10:19:10.687Z,54.87
2022-12-08T10:21:36.961Z,54.94
2022-12-08T10:24:03.220Z,54.72
2022-12-08T10:26:29.503Z,55.20
2022-12-08T10:28:55.816Z,54.71
2022-12-08T10:31:22.166Z,55.12
2022-12-08T10:33:48.479Z,54.89
2022-12-08T10:36:14.736Z,54.98
2022-12-08T10:38:41.009Z,55.13
2022-12-08T10:41:07.297Z,54.86
2022-12-08T10:43:33.565Z,55.26
2022-12-08T10:45:59.827Z,55.07
2022-12-08T10:48:26.100Z,55.08
2022-12-08T10:50:52.367Z,54.66
2022-12-08T10:53:18.645Z,54.74
2022-12-08T10:55:44.914Z,54.69
2022-12-08T10:58:11.208Z,55.35
2022-12-08T11:00:37.674Z,54.13
2022-12-08T11:03:04.129Z,54.33
2022-12-08T11:05:30.498Z,54.12
2022-12-08T11:07:56.772Z,54.01
2022-12-08T11:10:23.337Z,53.98
2022-12-08T11:12:49.643Z,54.05
2022-12-08T11:15:15.922Z,54.49
2022-12-08T11:17:42.188Z,54.20
2022-12-08T11:20:08.845Z,54.55
2022-12-08T11:22:35.318Z,55.10
2022-12-08T11:25:01.581Z,55.13
2022-12-08T11:27:27.854Z,54.95
2022-12-08T11:29:54.129Z,55.28
2022-12-08T11:32:20.457Z,55.11
2022-12-08T11:34:46.727Z,54.80
2022-12-08T11:37:13.125Z,55.33
2022-12-08T11:39:39.506Z,55.23
2022-12-08T11:42:05.755Z,54.49
2022-12-08T11:44:32.043Z,54.34
2022-12-08T11:46:58.318Z,54.56
2022-12-08T11:49:24.586Z,54.15
2022-12-08T11:51:50.856Z,53.89
2022-12-08T11:54:17.122Z,53.55
2022-12-08T11:56:43.391Z,53.72
2022-12-08T11:59:10.000Z,53.95
2022-12-08T12:01:42.200Z,53.15
2022-12-08T12:04:08.932Z,53.11
2022-12-08T12:06:53.819Z,53.23
2022-12-08T12:09:21.347Z,53.10
2022-12-08T12:11:47.624Z,53.03
2022-12-08T12:14:14.174Z,52.43
2022-12-08T12:16:40.558Z,52.45
2022-12-08T12:19:06.883Z,52.48
2022-12-08T12:21:33.131Z,52.09
2022-12-08T12:23:59.410Z,51.83
2022-12-08T12:26:25.673Z,52.23
2022-12-08T12:28:51.949Z,51.96
2022-12-08T12:31:18.287Z,52.15
2022-12-08T12:33:44.691Z,51.59
2022-12-08T12:36:10.948Z,51.91
2022-12-08T12:38:37.202Z,51.61
2022-12-08T12:41:03.466Z,51.29
2022-12-08T12:43:29.715Z,51.24
2022-12-08T12:45:56.052Z,51.21
2022-12-08T12:48:22.327Z,51.27
2022-12-08T12:50:48.597Z,50.58
2022-12-08T12:53:14.899Z,50.82
2022-12-08T12:55:41.171Z,50.87
2022-12-08T12:58:07.459Z,50.55
2022-12-08T13:00:33.754Z,50.74
2022-12-08T13:03:00.061Z,51.49
2022-12-08T13:05:26.447Z,50.97
2022-12-08T13:07:52.842Z,50.63
2022-12-08T13:10:19.197Z,51.47
2022-12-08T13:12:45.492Z,50.36
2022-12-08T13:15:11.743Z,51.01
2022-12-08T13:17:38.029Z,51.18
2022-12-08T13:20:04.573Z,50.81
2022-12-08T13:22:31.096Z,50.48
2022-12-08T13:24:57.369Z,50.52
2022-12-08T13:27:23.643Z,50.41
2022-12-08T13:29:49.892Z,50.60
2022-12-08T13:32:16.143Z,50.13
2022-12-08T13:34:42.419Z,49.82
2022-12-08T13:37:08.692Z,49.82
2022-12-08T13:39:34.983Z,50.08
2022-12-08T13:42:01.256Z,49.79
2022-12-08T13:58:18.913Z,49.56
2022-12-08T14:00:45.196Z,49.62
2022-12-08T14:03:11.742Z,49.66
2022-12-08T14:06:10.618Z,48.91
2022-12-08T14:08:50.781Z,49.08
2022-12-08T14:11:10.636Z,50.18
2022-12-08T14:13:36.900Z,50.14
2022-12-08T14:16:03.230Z,50.59
2022-12-08T14:18:29.901Z,50.64
2022-12-08T14:21:19.864Z,50.92
2022-12-08T14:23:42.429Z,50.78
2022-12-08T14:26:08.723Z,51.24
2022-12-08T14:28:37.807Z,51.54
2022-12-08T14:31:07.823Z,51.58
2022-12-08T14:33:34.130Z,51.40
2022-12-08T14:36:00.450Z,51.30
2022-12-08T14:38:26.802Z,51.22
2022-12-08T14:40:53.106Z,50.95
2022-12-08T14:43:19.382Z,51.14
2022-12-08T14:45:45.682Z,50.95
2022-12-08T14:48:11.957Z,51.14
2022-12-08T14:50:38.205Z,51.42
2022-12-08T14:53:04.471Z,51.12
2022-12-08T14:55:30.738Z,50.71
2022-12-08T14:57:57.035Z,51.33
2022-12-08T15:00:23.314Z,51.47
2022-12-08T15:02:49.602Z,51.10
2022-12-08T15:05:15.966Z,51.00
2022-12-08T15:07:42.354Z,51.47
2022-12-08T15:10:08.772Z,51.45
2022-12-08T15:12:35.263Z,51.80
2022-12-08T15:15:01.544Z,51.77
2022-12-08T15:17:27.806Z,52.21
2022-12-08T15:19:54.135Z,52.12
2022-12-08T15:22:20.446Z,52.46
2022-12-08T15:24:46.745Z,52.41
2022-12-08T15:27:13.217Z,52.62
2022-12-08T15:29:39.494Z,52.76
2022-12-08T15:32:05.745Z,52.58
2022-12-08T15:34:32.020Z,52.86
2022-12-08T15:36:58.303Z,52.71
2022-12-08T15:39:24.580Z,52.81
2022-12-08T15:41:50.843Z,52.81
2022-12-08T15:44:17.235Z,53.08
2022-12-08T15:46:43.599Z,52.92
2022-12-08T15:49:09.924Z,52.72
2022-12-08T15:51:36.185Z,52.69
2022-12-08T15:54:02.479Z,52.69
2022-12-08T15:56:28.978Z,52.75
2022-12-08T15:58:56.961Z,52.75
2022-12-08T16:01:23.982Z,53.26
2022-12-08T16:09:23.147Z,53.70
2022-12-08T16:12:05.727Z,53.37
2022-12-08T16:15:39.732Z,53.01
2022-12-08T16:17:19.443Z,53.49
2022-12-08T16:19:45.729Z,53.47
2022-12-08T16:25:04.973Z,53.32
2022-12-08T16:30:27.488Z,53.43
2022-12-08T16:32:53.751Z,53.59
2022-12-08T16:35:20.048Z,53.43
2022-12-08T16:37:46.321Z,52.92
2022-12-08T16:40:12.716Z,52.93
2022-12-08T16:42:39.069Z,53.52
2022-12-08T16:45:05.581Z,53.74
2022-12-08T16:47:32.180Z,53.64
2022-12-08T16:49:58.434Z,53.76
2022-12-08T16:52:24.713Z,53.67
2022-12-08T16:54:50.961Z,53.85
2022-12-08T16:57:17.235Z,53.91
2022-12-08T16:59:43.495Z,53.65
2022-12-08T17:02:15.071Z,53.54
2022-12-08T17:04:42.706Z,53.61
2022-12-08T17:07:09.040Z,54.11
2022-12-08T17:09:35.290Z,54.16
2022-12-08T17:12:03.985Z,54.63
2022-12-08T17:14:30.617Z,54.41
2022-12-08T17:16:56.976Z,54.65
2022-12-08T17:19:23.328Z,55.22
2022-12-08T17:21:49.624Z,54.98
2022-12-08T17:24:21.657Z,54.88
2022-12-08T17:26:48.309Z,55.29
2022-12-08T17:29:14.590Z,55.21
2022-12-08T17:31:40.889Z,55.32
2022-12-08T17:34:07.158Z,55.68
2022-12-08T17:36:33.430Z,55.18
2022-12-08T17:38:59.709Z,55.33
2022-12-08T17:41:25.985Z,55.31
2022-12-08T17:43:52.237Z,55.22
2022-12-08T17:46:18.631Z,55.04
2022-12-08T17:48:44.903Z,54.84
2022-12-08T17:51:11.194Z,55.13
2022-12-08T17:53:37.765Z,54.85
2022-12-08T17:56:04.058Z,55.13
2022-12-08T17:58:30.315Z,54.97
2022-12-08T18:00:56.692Z,54.86
2022-12-08T18:03:22.976Z,55.59
2022-12-08T18:05:49.292Z,55.46
2022-12-08T18:08:15.635Z,55.48
2022-12-08T18:10:41.986Z,55.24
2022-12-08T18:13:08.268Z,55.04
2022-12-08T18:15:38.996Z,55.28
2022-12-08T18:18:05.662Z,54.89
2022-12-08T18:20:31.952Z,54.89
2022-12-08T18:22:58.222Z,54.92
2022-12-08T18:25:24.518Z,54.61
2022-12-08T18:27:50.797Z,55.04
2022-12-08T18:30:17.075Z,55.11
2022-12-08T18:32:43.345Z,55.40
2022-12-08T18:35:09.593Z,55.50
2022-12-08T18:37:35.885Z,55.70
2022-12-08T18:40:02.304Z,55.71
2022-12-08T18:42:28.687Z,55.87
2022-12-08T18:44:55.010Z,55.76
2022-12-08T18:47:21.309Z,55.96
2022-12-08T18:49:47.593Z,55.63
2022-12-08T18:52:13.873Z,56.09
2022-12-08T18:55:05.097Z,56.01
2022-12-08T18:57:26.378Z,55.97
2022-12-08T18:59:52.701Z,55.74
2022-12-08T19:02:19.020Z,55.61
2022-12-08T19:04:45.333Z,55.53
2022-12-08T19:07:11.598Z,55.94
2022-12-08T19:09:37.867Z,56.43
2022-12-08T19:12:04.118Z,57.04
2022-12-08T19:14:30.455Z,56.73
2022-12-08T19:16:56.778Z,57.10
2022-12-08T19:19:23.033Z,57.55
2022-12-08T19:21:49.281Z,57.49
2022-12-08T19:24:15.565Z,57.47
2022-12-08T19:26:41.848Z,57.78
2022-12-08T19:29:08.124Z,57.48
2022-12-08T19:31:34.457Z,58.00
2022-12-08T19:34:00.771Z,57.84
2022-12-08T19:36:27.070Z,58.21
2022-12-08T19:38:53.358Z,58.48
2022-12-08T19:41:19.622Z,58.02
2022-12-08T19:43:46.025Z,58.50
2022-12-08T19:46:12.483Z,59.25
2022-12-08T19:48:38.863Z,58.93
2022-12-08T19:51:05.139Z,58.98
2022-12-08T19:53:31.421Z,59.00
2022-12-08T19:55:57.737Z,59.32
2022-12-08T19:58:24.016Z,59.11
2022-12-08T20:00:50.290Z,59.76
2022-12-08T20:03:16.616Z,59.39
2022-12-08T20:05:42.932Z,59.50
2022-12-08T20:08:09.271Z,59.40
2022-12-08T20:10:35.646Z,59.61
2022-12-08T20:13:01.931Z,59.36
2022-12-08T20:15:28.217Z,59.42
2022-12-08T20:17:54.478Z,59.90
2022-12-08T20:20:20.825Z,60.02
2022-12-08T20:22:47.148Z,59.62
2022-12-08T20:25:13.636Z,60.32
2022-12-08T20:27:39.957Z,60.20
2022-12-08T20:30:07.837Z,60.16
2022-12-08T20:32:36.857Z,60.40
2022-12-08T20:35:03.519Z,60.36
2022-12-08T20:37:30.099Z,59.86
2022-12-08T20:39:56.407Z,60.06
2022-12-08T20:42:22.815Z,59.64
2022-12-08T20:44:49.098Z,60.05
2022-12-08T20:47:15.484Z,60.21
2022-12-08T20:49:41.804Z,60.53
2022-12-08T20:52:08.273Z,60.79
2022-12-08T20:54:34.635Z,60.64
2022-12-08T20:57:01.052Z,60.95
2022-12-08T20:59:27.407Z,60.30
2022-12-08T21:01:55.002Z,60.64
2022-12-08T21:04:21.454Z,60.88
2022-12-08T21:06:48.117Z,60.14
2022-12-08T21:09:14.599Z,60.35
2022-12-08T21:11:41.001Z,60.48
2022-12-08T21:14:07.418Z,60.40
2022-12-08T21:16:33.875Z,60.69
2022-12-08T21:19:00.342Z,60.48
2022-12-08T21:21:26.832Z,60.25
2022-12-08T21:23:53.265Z,60.61
2022-12-08T21:26:19.621Z,60.41
2022-12-08T21:28:46.020Z,60.24
2022-12-08T21:31:12.508Z,60.29
2022-12-08T21:33:38.955Z,60.77
2022-12-08T21:36:05.361Z,60.54
2022-12-08T21:38:31.817Z,60.47
2022-12-08T21:40:58.363Z,60.21
2022-12-08T21:43:24.825Z,60.13
2022-12-08T21:45:51.183Z,60.41
2022-12-08T21:48:17.538Z,61.13
2022-12-08T21:50:44.155Z,61.06
2022-12-08T21:53:10.448Z,60.92
2022-12-08T21:55:36.928Z,61.16
2022-12-08T21:58:03.373Z,61.28
2022-12-08T22:00:29.838Z,61.50
2022-12-08T22:02:56.431Z,61.54
2022-12-08T22:05:22.822Z,61.87
2022-12-08T22:07:49.349Z,62.03
2022-12-08T22:10:15.782Z,62.72
2022-12-08T22:12:42.137Z,62.90
2022-12-08T22:15:08.463Z,63.09
2022-12-08T22:17:34.993Z,62.83
2022-12-08T22:20:01.527Z,62.85
2022-12-08T22:22:28.023Z,62.82
2022-12-08T22:24:54.301Z,62.84
2022-12-08T22:27:20.666Z,62.67
2022-12-08T22:29:46.918Z,63.43
2022-12-08T22:32:13.356Z,63.08
2022-12-08T22:34:39.653Z,63.17
2022-12-08T22:37:05.905Z,63.38
2022-12-08T22:39:32.176Z,63.34
2022-12-08T22:41:58.607Z,63.21
2022-12-08T22:44:25.066Z,63.26
2022-12-08T22:46:51.372Z,63.76
2022-12-08T22:49:17.658Z,63.85
2022-12-08T22:51:43.942Z,64.23
2022-12-08T22:54:10.215Z,64.00
2022-12-08T22:56:36.575Z,64.67
2022-12-08T22:59:03.046Z,64.29
2022-12-08T23:01:29.328Z,64.22
2022-12-08T23:03:55.759Z,64.24
2022-12-08T23:06:22.135Z,63.96
2022-12-08T23:08:48.548Z,64.90
2022-12-08T23:11:15.151Z,64.96
2022-12-08T23:13:41.435Z,65.21
2022-12-08T23:16:07.891Z,65.11
2022-12-08T23:18:34.205Z,64.63
2022-12-08T23:21:00.653Z,65.04
2022-12-08T23:23:26.913Z,65.01
2022-12-08T23:25:53.356Z,65.14
2022-12-08T23:28:19.751Z,64.53
2022-12-08T23:30:46.098Z,65.32
2022-12-08T23:33:12.651Z,65.14
2022-12-08T23:35:39.025Z,65.22
2022-12-08T23:38:05.529Z,65.80
2022-12-08T23:40:32.029Z,65.56
2022-12-08T23:42:58.346Z,65.60
2022-12-08T23:45:24.715Z,65.54
2022-12-08T23:47:51.001Z,65.05
2022-12-08T23:50:17.254Z,65.80
2022-12-08T23:52:43.587Z,65.82
2022-12-08T23:55:09.868Z,66.07
2022-12-08T23:57:36.171Z,66.74
